Time;durP1;ratioP1;P1;durP2;ratioP2;P2;SDS_P1;SDS_P2;PMS_P1;PMS_P2;Temp;Humidity;BMP_temperature;BMP_pressure;BME280_temperature;BME280_humidity;BME280_pressure;Samples;Min_cycle;Max_cycle;Signal;HPM_P1;HPM_P2
2021/07/12 00:01:33;;;;;;;12.63;6.43;;;19.20;99.90;;;;;;5005491;28;20208;-70
2021/07/12 00:03:59;;;;;;;13.95;7.00;;;19.20;99.90;;;;;;5005065;28;20033;-69
2021/07/12 00:06:24;;;;;;;13.55;6.10;;;19.20;99.90;;;;;;5005566;28;20034;-69
2021/07/12 00:08:50;;;;;;;13.02;6.68;;;19.10;99.90;;;;;;5005759;28;20054;-72
2021/07/12 00:11:15;;;;;;;11.55;6.20;;;19.10;99.90;;;;;;5005131;28;20050;-68
2021/07/12 00:13:41;;;;;;;13.10;7.68;;;19.10;99.90;;;;;;5005493;28;20041;-69
2021/07/12 00:16:07;;;;;;;10.80;7.07;;;19.10;99.90;;;;;;5005113;28;20017;-72
2021/07/12 00:18:32;;;;;;;12.73;6.45;;;19.10;99.90;;;;;;5005579;28;20030;-70
2021/07/12 00:20:58;;;;;;;11.38;6.45;;;19.00;99.90;;;;;;5005152;28;20045;-71
2021/07/12 00:23:23;;;;;;;14.70;7.40;;;19.00;99.90;;;;;;5005304;28;20077;-70
2021/07/12 00:25:49;;;;;;;13.65;7.13;;;19.00;99.90;;;;;;5020246;28;20030;-71
2021/07/12 00:28:15;;;;;;;12.48;6.90;;;19.00;99.90;;;;;;5020327;28;20022;-69
2021/07/12 00:30:40;;;;;;;11.80;6.63;;;19.00;99.90;;;;;;5006459;28;20036;-69
2021/07/12 00:33:06;;;;;;;11.73;7.43;;;19.00;99.90;;;;;;5022852;28;20033;-68
2021/07/12 00:35:32;;;;;;;12.90;6.72;;;18.90;99.90;;;;;;5024836;28;20144;-68
2021/07/12 00:37:58;;;;;;;13.73;6.88;;;19.00;99.90;;;;;;5007161;28;20022;-70
2021/07/12 00:40:25;;;;;;;12.18;6.32;;;18.90;99.90;;;;;;5004996;28;20030;-70
2021/07/12 00:42:51;;;;;;;16.33;8.10;;;18.90;99.90;;;;;;5004939;28;20026;-70
2021/07/12 00:45:21;;;;;;;11.27;6.78;;;18.90;99.90;;;;;;5004771;28;20078;-70
2021/07/12 00:47:48;;;;;;;12.40;6.70;;;18.90;99.90;;;;;;5020394;28;20121;-69
2021/07/12 00:50:14;;;;;;;14.23;6.57;;;18.90;99.90;;;;;;5003693;28;20042;-70
2021/07/12 00:52:40;;;;;;;18.70;7.03;;;18.90;99.90;;;;;;5004932;28;20042;-70
2021/07/12 00:55:30;;;;;;;16.85;6.40;;;18.90;99.90;;;;;;5004603;28;20033;-69
2021/07/12 00:57:55;;;;;;;13.10;6.93;;;18.90;99.90;;;;;;5004895;28;20041;-72
2021/07/12 01:00:24;;;;;;;11.77;7.18;;;18.90;99.90;;;;;;5005003;28;20077;-69
2021/07/12 01:02:51;;;;;;;15.88;7.47;;;18.90;99.90;;;;;;5004569;28;20034;-68
2021/07/12 01:05:19;;;;;;;16.35;7.88;;;18.90;99.90;;;;;;5004588;28;20026;-73
2021/07/12 01:07:45;;;;;;;11.93;7.00;;;18.90;99.90;;;;;;5004954;28;20054;-69
2021/07/12 01:10:12;;;;;;;14.10;8.05;;;18.90;99.90;;;;;;5004548;28;20041;-71
2021/07/12 01:12:54;;;;;;;13.15;7.53;;;18.90;99.90;;;;;;5019517;28;20156;-69
2021/07/12 01:15:23;;;;;;;15.30;7.97;;;18.90;99.90;;;;;;5004352;28;20030;-71
2021/07/12 01:18:03;;;;;;;10.52;7.05;;;18.90;99.90;;;;;;5004948;28;20506;-68
2021/07/12 01:21:05;;;;;;;19.70;8.90;;;18.90;99.90;;;;;;5004601;28;20033;-72
2021/07/12 01:23:38;;;;;;;12.63;7.70;;;18.80;99.90;;;;;;5004462;28;20123;-69
2021/07/12 01:26:25;;;;;;;11.88;7.25;;;18.80;99.90;;;;;;5004295;28;20022;-69
2021/07/12 01:29:18;;;;;;;12.30;7.22;;;18.80;99.90;;;;;;5004760;28;20037;-68
2021/07/12 01:32:10;;;;;;;14.68;6.90;;;18.80;99.90;;;;;;5004752;28;20046;-69
2021/07/12 01:34:39;;;;;;;18.95;7.57;;;18.80;99.90;;;;;;5004604;28;20030;-69
2021/07/12 01:37:33;;;;;;;16.05;7.20;;;18.80;99.90;;;;;;5004561;28;20022;-69
2021/07/12 01:40:06;;;;;;;12.65;7.88;;;18.80;99.90;;;;;;5004435;28;20076;-70
2021/07/12 01:43:02;;;;;;;17.15;8.98;;;18.80;99.90;;;;;;5004035;28;20034;-70
2021/07/12 01:45:36;;;;;;;25.25;7.78;;;18.70;99.90;;;;;;5004531;28;20034;-70
2021/07/12 01:48:07;;;;;;;15.38;9.07;;;18.70;99.90;;;;;;5004211;28;20450;-68
2021/07/12 01:50:50;;;;;;;14.80;7.47;;;18.70;99.90;;;;;;5004452;28;20424;-70
2021/07/12 01:53:23;;;;;;;12.70;7.88;;;18.60;99.90;;;;;;5019264;28;20125;-71
2021/07/12 01:55:55;;;;;;;17.83;9.05;;;18.60;99.90;;;;;;5004245;28;20019;-68
2021/07/12 01:58:28;;;;;;;16.92;7.90;;;18.60;99.90;;;;;;5004207;28;20042;-70
2021/07/12 02:00:55;;;;;;;15.63;8.05;;;18.60;99.90;;;;;;5006926;28;20105;-73
2021/07/12 02:03:23;;;;;;;21.35;7.97;;;18.60;99.90;;;;;;5007812;28;20027;-71
2021/07/12 02:05:51;;;;;;;17.27;9.00;;;18.50;99.90;;;;;;5008152;28;20034;-69
2021/07/12 02:08:20;;;;;;;14.20;8.27;;;18.50;99.90;;;;;;5007319;28;20022;-69
2021/07/12 02:10:49;;;;;;;27.75;7.78;;;18.50;99.90;;;;;;5006525;28;20039;-69
2021/07/12 02:13:14;;;;;;;14.65;8.32;;;18.50;99.90;;;;;;5022642;28;20057;-70
2021/07/12 02:15:45;;;;;;;14.82;8.43;;;18.50;99.90;;;;;;5007585;28;20030;-70
2021/07/12 02:18:12;;;;;;;16.95;8.90;;;18.50;99.90;;;;;;5007251;28;20031;-69
2021/07/12 02:20:39;;;;;;;18.40;10.20;;;18.50;99.90;;;;;;5007596;28;20038;-69
2021/07/12 02:23:07;;;;;;;19.05;9.50;;;18.50;99.90;;;;;;5007712;28;20054;-70
2021/07/12 02:25:33;;;;;;;15.32;8.55;;;18.50;99.90;;;;;;5021153;28;20046;-71
2021/07/12 02:27:59;;;;;;;14.98;8.18;;;18.40;99.90;;;;;;5020095;28;20480;-72
2021/07/12 02:30:27;;;;;;;13.38;8.02;;;18.40;99.90;;;;;;5024213;28;20069;-68
2021/07/12 02:32:54;;;;;;;23.05;9.32;;;18.30;99.90;;;;;;5007499;28;20080;-70
2021/07/12 02:35:21;;;;;;;17.83;8.43;;;18.30;99.90;;;;;;5007325;28;20050;-69
2021/07/12 02:37:49;;;;;;;13.35;8.25;;;18.30;99.90;;;;;;5007358;28;20046;-70
2021/07/12 02:40:17;;;;;;;13.63;8.20;;;18.30;99.90;;;;;;5007088;28;21036;-71
2021/07/12 02:42:48;;;;;;;13.85;8.60;;;18.30;99.90;;;;;;5020855;28;20026;-69
2021/07/12 02:45:15;;;;;;;16.58;8.25;;;18.20;99.90;;;;;;5026424;28;20558;-70
2021/07/12 02:47:40;;;;;;;18.65;8.57;;;18.20;99.90;;;;;;5026107;28;20041;-69
2021/07/12 02:50:08;;;;;;;14.18;7.57;;;18.20;99.90;;;;;;5025998;28;20642;-70
2021/07/12 02:52:46;;;;;;;16.25;9.55;;;18.20;99.90;;;;;;5026174;28;20038;-71
2021/07/12 02:55:12;;;;;;;12.40;7.78;;;18.10;99.90;;;;;;5026735;28;20018;-71
2021/07/12 02:57:38;;;;;;;15.43;8.70;;;18.10;99.90;;;;;;5026660;28;20054;-71
2021/07/12 03:00:07;;;;;;;15.63;8.50;;;18.10;99.90;;;;;;5026558;28;20033;-70
2021/07/12 03:02:32;;;;;;;15.90;8.25;;;18.10;99.90;;;;;;5026530;28;20491;-69
2021/07/12 03:04:58;;;;;;;13.27;7.70;;;18.10;99.90;;;;;;5026183;28;20036;-70
2021/07/12 03:07:29;;;;;;;14.85;8.20;;;18.10;99.90;;;;;;5026043;28;20028;-72
2021/07/12 03:10:01;;;;;;;15.88;7.70;;;18.10;99.90;;;;;;5026115;28;20030;-70
2021/07/12 03:12:42;;;;;;;17.42;8.93;;;18.10;99.90;;;;;;5024790;28;20042;-71
2021/07/12 03:15:12;;;;;;;18.55;9.93;;;18.10;99.90;;;;;;5025765;28;20029;-69
2021/07/12 03:17:43;;;;;;;17.00;8.27;;;18.10;99.90;;;;;;5026205;28;20033;-69
2021/07/12 03:20:10;;;;;;;19.38;9.73;;;18.10;99.90;;;;;;5025825;28;20500;-71
2021/07/12 03:22:39;;;;;;;19.85;9.85;;;18.10;99.90;;;;;;5025551;28;20022;-70
2021/07/12 03:25:06;;;;;;;15.32;9.38;;;18.00;99.90;;;;;;5025789;28;20025;-71
2021/07/12 03:27:32;;;;;;;14.70;9.23;;;18.10;99.90;;;;;;5025905;28;20022;-69
2021/07/12 03:30:02;;;;;;;18.00;9.32;;;18.10;99.90;;;;;;5026092;28;20090;-68
2021/07/12 03:32:30;;;;;;;15.85;10.43;;;18.00;99.90;;;;;;5025870;28;20041;-71
2021/07/12 03:34:57;;;;;;;14.93;9.07;;;18.10;99.90;;;;;;5026038;28;20080;-70
2021/07/12 03:37:24;;;;;;;17.17;8.77;;;18.00;99.90;;;;;;5024684;28;20073;-70
2021/07/12 03:39:51;;;;;;;17.65;9.80;;;18.10;99.90;;;;;;5025910;28;20030;-69
2021/07/12 03:42:19;;;;;;;15.57;9.65;;;18.10;99.90;;;;;;5026089;28;20034;-71
2021/07/12 03:44:46;;;;;;;23.13;10.50;;;18.10;99.90;;;;;;5026034;28;20081;-69
2021/07/12 03:47:31;;;;;;;13.68;8.05;;;18.20;99.90;;;;;;5025583;28;20128;-69
2021/07/12 03:50:12;;;;;;;17.40;10.02;;;18.20;99.90;;;;;;5025903;28;20029;-68
2021/07/12 03:52:42;;;;;;;17.27;8.82;;;18.20;99.90;;;;;;5025147;28;20033;-70
2021/07/12 03:55:09;;;;;;;13.90;9.02;;;18.20;99.90;;;;;;5024894;28;20030;-70
2021/07/12 03:57:34;;;;;;;21.77;9.70;;;18.20;99.90;;;;;;5040497;28;20120;-70
2021/07/12 04:00:00;;;;;;;19.33;10.98;;;18.30;99.90;;;;;;5025032;28;20559;-70
2021/07/12 04:02:25;;;;;;;19.98;10.55;;;18.30;99.90;;;;;;5025333;28;20034;-72
2021/07/12 04:04:51;;;;;;;20.58;10.07;;;18.40;99.90;;;;;;5025180;28;20484;-70
2021/07/12 04:07:16;;;;;;;15.95;9.65;;;18.40;99.90;;;;;;5025119;28;20143;-68
2021/07/12 04:09:42;;;;;;;16.55;9.02;;;18.40;99.90;;;;;;5025422;28;20034;-71
2021/07/12 04:12:08;;;;;;;13.40;8.73;;;18.40;99.90;;;;;;5025240;28;20053;-69
2021/07/12 04:14:33;;;;;;;18.50;9.45;;;18.40;99.90;;;;;;5023880;28;20038;-71
2021/07/12 04:16:59;;;;;;;18.83;8.95;;;18.50;99.90;;;;;;5024681;28;20052;-68
2021/07/12 04:19:24;;;;;;;24.42;9.32;;;18.50;99.90;;;;;;5024987;28;20483;-70
2021/07/12 04:21:50;;;;;;;20.13;9.30;;;18.50;99.90;;;;;;5024772;28;20029;-70
2021/07/12 04:24:16;;;;;;;14.18;8.55;;;18.50;99.90;;;;;;5024239;28;20041;-69
2021/07/12 04:26:41;;;;;;;17.05;8.93;;;18.50;99.90;;;;;;5025146;28;20029;-70
2021/07/12 04:29:07;;;;;;;24.23;9.90;;;18.50;99.90;;;;;;5024446;28;20090;-70
2021/07/12 04:31:33;;;;;;;16.60;9.38;;;18.60;99.90;;;;;;5024784;28;20049;-70
2021/07/12 04:33:59;;;;;;;19.23;10.77;;;18.60;99.90;;;;;;5024537;28;20026;-71
2021/07/12 04:36:25;;;;;;;16.30;9.75;;;18.60;99.90;;;;;;5024869;28;20049;-69
2021/07/12 04:38:51;;;;;;;22.55;9.80;;;18.60;99.90;;;;;;5025085;28;20030;-69
2021/07/12 04:41:16;;;;;;;18.05;8.80;;;18.60;99.90;;;;;;5018037;28;20027;-69
2021/07/12 04:43:42;;;;;;;15.23;8.80;;;18.60;99.90;;;;;;5019071;28;20038;-70
2021/07/12 04:46:08;;;;;;;19.35;10.48;;;18.50;99.90;;;;;;5015309;28;20079;-68
2021/07/12 04:48:33;;;;;;;16.08;8.50;;;18.50;99.90;;;;;;5004923;28;20026;-70
2021/07/12 04:50:59;;;;;;;18.83;9.25;;;18.50;99.90;;;;;;5004405;28;20042;-68
2021/07/12 04:53:24;;;;;;;13.55;8.48;;;18.50;99.90;;;;;;5004902;28;20049;-67
2021/07/12 04:55:50;;;;;;;16.48;9.27;;;18.60;99.90;;;;;;5005063;28;20030;-69
2021/07/12 04:58:15;;;;;;;18.27;8.80;;;18.60;99.90;;;;;;5004971;28;20026;-68
2021/07/12 05:00:41;;;;;;;16.85;10.02;;;18.60;99.90;;;;;;5003664;28;20041;-68
2021/07/12 05:03:07;;;;;;;16.58;8.88;;;18.60;99.90;;;;;;5004946;28;20034;-68
2021/07/12 05:05:33;;;;;;;17.13;9.80;;;18.60;99.90;;;;;;5004739;28;20033;-67
2021/07/12 05:07:59;;;;;;;13.93;8.68;;;18.60;99.90;;;;;;5004810;28;20393;-70
2021/07/12 05:10:25;;;;;;;18.58;9.63;;;18.50;99.90;;;;;;5005075;28;20042;-68
2021/07/12 05:12:50;;;;;;;15.15;9.05;;;18.60;99.90;;;;;;5003944;28;20069;-68
2021/07/12 05:15:16;;;;;;;17.45;9.57;;;18.60;99.90;;;;;;5005541;28;20022;-70
2021/07/12 05:17:42;;;;;;;16.52;8.80;;;18.60;99.90;;;;;;5013611;28;20034;-69
2021/07/12 05:20:08;;;;;;;19.60;10.25;;;18.60;99.90;;;;;;5006838;28;20097;-70
2021/07/12 05:22:34;;;;;;;18.77;10.55;;;18.60;99.90;;;;;;5004051;28;20086;-70
2021/07/12 05:25:01;;;;;;;20.83;10.57;;;18.70;99.90;;;;;;5004109;28;20057;-68
2021/07/12 05:27:27;;;;;;;19.05;9.13;;;18.70;99.90;;;;;;5004771;28;20022;-67
2021/07/12 05:29:52;;;;;;;14.00;8.25;;;18.80;99.90;;;;;;5004622;28;20033;-69
2021/07/12 05:32:18;;;;;;;15.20;9.45;;;18.80;99.90;;;;;;5004514;28;20045;-69
2021/07/12 05:34:44;;;;;;;17.17;9.50;;;18.90;99.90;;;;;;5005510;28;20061;-68
2021/07/12 05:37:09;;;;;;;19.70;9.77;;;18.90;99.90;;;;;;5008032;28;20385;-69
2021/07/12 05:39:35;;;;;;;17.73;9.00;;;18.90;99.90;;;;;;5008387;28;20026;-67
2021/07/12 05:42:00;;;;;;;14.48;8.35;;;18.90;99.90;;;;;;5008153;28;20042;-69
2021/07/12 05:44:26;;;;;;;17.13;9.82;;;18.90;99.90;;;;;;5008067;28;20089;-68
2021/07/12 05:46:52;;;;;;;13.35;9.13;;;19.00;99.90;;;;;;5008094;28;20022;-70
2021/07/12 05:49:18;;;;;;;15.18;9.35;;;19.00;99.90;;;;;;5008017;28;20034;-67
2021/07/12 05:51:46;;;;;;;15.93;9.35;;;19.10;99.90;;;;;;5007946;28;20523;-68
2021/07/12 05:54:11;;;;;;;22.90;9.80;;;19.10;99.90;;;;;;5007680;28;20057;-70
2021/07/12 05:56:37;;;;;;;20.15;9.30;;;19.20;99.90;;;;;;5007548;28;20031;-67
2021/07/12 05:59:02;;;;;;;15.75;9.77;;;19.20;99.90;;;;;;5008061;28;20030;-67
2021/07/12 06:01:28;;;;;;;13.85;9.07;;;19.30;99.90;;;;;;5007638;28;20078;-67
2021/07/12 06:03:54;;;;;;;13.82;9.60;;;19.40;99.90;;;;;;5007977;28;20096;-69
2021/07/12 06:06:19;;;;;;;19.83;10.90;;;19.40;99.90;;;;;;5007513;28;20030;-71
2021/07/12 06:08:45;;;;;;;22.73;10.50;;;19.40;99.90;;;;;;5007880;28;20038;-68
2021/07/12 06:11:10;;;;;;;18.58;11.00;;;19.40;99.90;;;;;;5007551;28;20053;-68
2021/07/12 06:13:37;;;;;;;19.25;11.25;;;19.50;99.90;;;;;;5008097;28;20567;-67
2021/07/12 06:16:02;;;;;;;22.25;10.35;;;19.60;99.90;;;;;;5007673;28;20031;-68
2021/07/12 06:18:28;;;;;;;19.48;11.40;;;19.60;99.90;;;;;;5007565;28;20054;-69
2021/07/12 06:20:54;;;;;;;21.52;11.40;;;19.60;99.90;;;;;;5007547;28;20037;-69
2021/07/12 06:23:19;;;;;;;24.00;11.50;;;19.80;99.90;;;;;;5007547;28;20057;-69
2021/07/12 06:25:45;;;;;;;20.38;10.65;;;19.90;99.90;;;;;;5007382;28;20030;-68
2021/07/12 06:28:10;;;;;;;20.50;11.43;;;20.00;99.90;;;;;;5006987;28;20649;-68
2021/07/12 06:30:36;;;;;;;16.65;10.25;;;20.10;99.90;;;;;;5007281;28;20036;-69
2021/07/12 06:33:02;;;;;;;16.50;10.00;;;20.20;99.90;;;;;;5007258;28;20038;-69
2021/07/12 06:35:28;;;;;;;16.38;9.27;;;20.30;99.90;;;;;;5006909;28;20098;-69
2021/07/12 06:37:54;;;;;;;17.20;10.02;;;20.40;99.90;;;;;;5006959;28;20038;-71
2021/07/12 06:40:20;;;;;;;13.82;9.38;;;20.40;99.90;;;;;;5013627;28;20037;-68
2021/07/12 06:42:45;;;;;;;15.38;8.88;;;20.40;99.90;;;;;;5007420;28;20033;-70
2021/07/12 06:45:12;;;;;;;18.73;9.65;;;20.60;99.90;;;;;;5004964;28;20022;-68
2021/07/12 06:47:37;;;;;;;17.38;9.98;;;20.60;99.90;;;;;;5006825;28;20031;-65
2021/07/12 06:50:04;;;;;;;15.30;9.15;;;20.60;99.90;;;;;;5006776;28;20027;-67
2021/07/12 06:52:30;;;;;;;14.88;8.50;;;20.70;99.90;;;;;;5005816;28;20057;-67
2021/07/12 06:54:55;;;;;;;17.85;9.45;;;20.70;99.90;;;;;;5006804;28;20026;-66
2021/07/12 06:57:21;;;;;;;14.98;8.85;;;20.80;99.90;;;;;;5008211;28;20037;-68
2021/07/12 06:59:47;;;;;;;25.63;10.57;;;20.80;99.90;;;;;;5024860;28;20144;-66
2021/07/12 07:02:13;;;;;;;15.38;9.50;;;20.90;99.90;;;;;;5006312;28;20078;-66
2021/07/12 07:04:41;;;;;;;16.55;8.52;;;20.90;99.90;;;;;;5006838;28;20085;-67
2021/07/12 07:07:07;;;;;;;22.70;9.52;;;21.00;99.90;;;;;;5006372;28;20054;-68
2021/07/12 07:09:33;;;;;;;15.88;8.82;;;21.00;99.90;;;;;;5006503;28;20037;-69
2021/07/12 07:11:59;;;;;;;17.15;7.82;;;21.10;99.90;;;;;;5006420;28;20475;-68
2021/07/12 07:14:24;;;;;;;16.42;8.98;;;21.10;99.90;;;;;;5005363;28;20030;-68
2021/07/12 07:16:50;;;;;;;13.90;8.65;;;21.10;99.90;;;;;;5006548;28;20113;-67
2021/07/12 07:19:15;;;;;;;13.15;8.20;;;21.20;99.90;;;;;;5006555;28;20026;-67
2021/07/12 07:21:41;;;;;;;15.80;8.40;;;21.10;99.90;;;;;;5006100;28;20388;-67
2021/07/12 07:24:07;;;;;;;17.17;8.52;;;21.20;99.90;;;;;;5004886;28;20061;-68
2021/07/12 07:26:32;;;;;;;17.10;8.70;;;21.20;99.90;;;;;;5005833;28;20030;-65
2021/07/12 07:28:58;;;;;;;21.33;8.80;;;21.20;99.90;;;;;;5005423;28;20019;-68
2021/07/12 07:31:24;;;;;;;16.88;8.82;;;21.30;99.90;;;;;;5005863;28;20043;-68
2021/07/12 07:33:50;;;;;;;14.05;8.23;;;21.30;99.90;;;;;;5005730;28;20054;-66
2021/07/12 07:36:16;;;;;;;15.02;8.25;;;21.40;99.90;;;;;;5005926;28;20099;-67
2021/07/12 07:38:42;;;;;;;13.23;7.95;;;21.40;99.90;;;;;;5006371;28;20018;-66
2021/07/12 07:41:08;;;;;;;15.25;7.05;;;21.50;99.90;;;;;;5005711;28;21131;-68
2021/07/12 07:43:34;;;;;;;15.50;8.38;;;21.60;99.90;;;;;;5004963;28;20030;-64
2021/07/12 07:46:00;;;;;;;14.88;8.18;;;21.70;99.90;;;;;;5005293;28;20473;-66
2021/07/12 07:48:26;;;;;;;12.30;7.57;;;21.80;99.90;;;;;;5018061;28;20093;-67
2021/07/12 07:50:51;;;;;;;10.98;6.43;;;21.80;99.90;;;;;;5023622;28;20480;-71
2021/07/12 07:53:17;;;;;;;11.20;7.68;;;21.90;99.90;;;;;;5025193;28;20154;-65
2021/07/12 07:55:43;;;;;;;12.90;7.75;;;21.80;99.90;;;;;;5024580;28;20088;-67
2021/07/12 07:58:08;;;;;;;8.20;5.90;;;21.80;99.90;;;;;;5023991;28;20049;-67
2021/07/12 08:00:34;;;;;;;12.30;7.32;;;21.80;99.90;;;;;;5025297;28;20029;-66
2021/07/12 08:03:01;;;;;;;10.65;6.78;;;21.80;99.90;;;;;;5025126;28;20053;-68
2021/07/12 08:05:26;;;;;;;10.82;7.07;;;21.80;99.90;;;;;;5017352;28;20053;-67
2021/07/12 08:07:52;;;;;;;10.82;6.78;;;21.80;99.90;;;;;;5015056;28;20046;-70
2021/07/12 08:10:19;;;;;;;14.55;7.22;;;21.90;99.90;;;;;;5010448;28;20038;-68
2021/07/12 08:12:46;;;;;;;10.98;6.45;;;21.90;99.90;;;;;;5010812;28;20081;-67
2021/07/12 08:15:13;;;;;;;11.80;6.80;;;22.00;99.90;;;;;;5004529;28;20042;-68
2021/07/12 08:17:40;;;;;;;33.08;7.88;;;22.00;99.90;;;;;;5004820;28;20034;-68
2021/07/12 08:20:07;;;;;;;14.15;7.70;;;22.00;99.90;;;;;;5005557;28;20030;-71
2021/07/12 08:22:33;;;;;;;11.35;7.03;;;22.00;99.90;;;;;;5005358;28;20045;-69
2021/07/12 08:25:02;;;;;;;19.33;7.95;;;22.00;99.90;;;;;;5004638;28;20030;-67
2021/07/12 08:27:28;;;;;;;11.20;7.53;;;22.10;99.90;;;;;;5005021;28;20077;-69
2021/07/12 08:29:54;;;;;;;14.13;7.82;;;22.10;99.90;;;;;;5004916;28;20026;-70
2021/07/12 08:32:21;;;;;;;21.30;7.38;;;22.10;99.90;;;;;;5005335;28;20049;-68
2021/07/12 08:34:46;;;;;;;16.45;7.72;;;22.20;99.90;;;;;;5005643;28;20030;-69
2021/07/12 08:37:13;;;;;;;14.25;8.48;;;22.30;99.90;;;;;;5003785;28;20109;-68
2021/07/12 08:39:39;;;;;;;15.45;7.60;;;22.30;99.90;;;;;;5004578;28;20030;-69
2021/07/12 08:42:05;;;;;;;14.75;7.80;;;22.40;99.90;;;;;;5004814;28;20054;-70
2021/07/12 08:44:31;;;;;;;9.45;6.65;;;22.50;99.90;;;;;;5022281;28;20026;-68
2021/07/12 08:46:57;;;;;;;11.75;6.53;;;22.60;99.90;;;;;;5017602;28;20081;-69
2021/07/12 08:49:23;;;;;;;12.82;7.13;;;22.80;99.90;;;;;;5013245;28;20026;-69
2021/07/12 08:51:49;;;;;;;10.40;6.72;;;22.90;99.90;;;;;;5023409;28;20034;-70
2021/07/12 08:54:16;;;;;;;8.25;5.03;;;23.00;99.90;;;;;;5006489;28;20042;-69
2021/07/12 08:56:41;;;;;;;13.05;7.22;;;23.10;99.90;;;;;;5005080;28;20038;-69
2021/07/12 08:59:30;;;;;;;10.27;5.63;;;23.10;99.90;;;;;;5004612;28;20086;-69
2021/07/12 09:02:19;;;;;;;12.80;6.82;;;23.10;99.90;;;;;;5004526;28;20030;-69
2021/07/12 09:04:50;;;;;;;10.20;6.30;;;23.00;99.90;;;;;;5004769;28;20037;-68
2021/07/12 09:07:23;;;;;;;8.80;6.05;;;23.10;99.90;;;;;;5005010;28;20026;-70
2021/07/12 09:09:57;;;;;;;11.13;5.03;;;23.10;99.90;;;;;;5006201;28;20033;-72
2021/07/12 09:12:23;;;;;;;8.88;5.95;;;23.10;99.90;;;;;;5016704;28;20054;-69
2021/07/12 09:15:22;;;;;;;6.78;4.68;;;23.20;99.90;;;;;;5016652;28;20050;-71
2021/07/12 09:17:53;;;;;;;10.00;6.25;;;23.30;99.90;;;;;;4997114;28;20053;-69
2021/07/12 09:20:29;;;;;;;9.18;5.78;;;23.30;99.90;;;;;;5025141;28;20080;-69
2021/07/12 09:22:55;;;;;;;9.32;5.90;;;23.40;99.90;;;;;;5027439;28;20034;-72
2021/07/12 09:25:22;;;;;;;11.93;6.25;;;23.50;99.90;;;;;;5027911;28;20068;-71
2021/07/12 09:27:55;;;;;;;9.40;5.00;;;23.50;99.90;;;;;;5028184;28;20132;-70
2021/07/12 09:30:21;;;;;;;11.10;6.93;;;23.60;99.90;;;;;;5028450;28;20026;-72
2021/07/12 09:32:51;;;;;;;13.70;6.32;;;23.60;99.90;;;;;;5028148;28;20081;-68
2021/07/12 09:35:18;;;;;;;9.32;6.00;;;23.60;99.90;;;;;;5027430;28;20041;-69
2021/07/12 09:38:00;;;;;;;13.95;6.95;;;23.50;99.90;;;;;;5026818;28;20090;-70
2021/07/12 09:40:28;;;;;;;14.02;6.32;;;23.50;99.90;;;;;;5026789;28;20499;-70
2021/07/12 09:42:54;;;;;;;9.02;5.45;;;23.60;99.90;;;;;;5028037;28;20033;-67
2021/07/12 09:45:22;;;;;;;10.15;5.03;;;23.50;99.90;;;;;;5027644;28;20036;-68
2021/07/12 09:47:49;;;;;;;8.90;5.55;;;23.60;99.90;;;;;;5027911;28;20093;-68
2021/07/12 09:50:16;;;;;;;9.57;5.25;;;23.60;99.90;;;;;;5027703;28;20025;-69
2021/07/12 09:52:49;;;;;;;11.02;6.50;;;23.60;99.90;;;;;;5027550;28;20507;-69
2021/07/12 09:55:21;;;;;;;7.40;5.00;;;23.60;99.90;;;;;;5027061;28;20026;-69
2021/07/12 09:57:47;;;;;;;9.77;5.65;;;23.60;99.90;;;;;;5027385;28;20022;-68
2021/07/12 10:00:14;;;;;;;9.40;5.43;;;23.70;99.90;;;;;;5027133;28;20125;-69
2021/07/12 10:02:40;;;;;;;12.77;6.00;;;23.70;99.90;;;;;;5027118;28;20025;-67
2021/07/12 10:05:11;;;;;;;9.75;5.40;;;23.80;99.90;;;;;;5027455;28;20034;-69
2021/07/12 10:07:37;;;;;;;9.23;5.13;;;23.90;99.90;;;;;;5027138;28;20034;-71
2021/07/12 10:10:13;;;;;;;7.68;5.25;;;24.10;99.90;;;;;;5018133;28;20086;-70
2021/07/12 10:12:41;;;;;;;9.43;6.20;;;24.20;99.90;;;;;;5019988;28;20508;-69
2021/07/12 10:15:08;;;;;;;9.52;4.75;;;24.20;99.90;;;;;;5007560;28;20090;-69
2021/07/12 10:17:34;;;;;;;8.48;5.18;;;24.30;99.90;;;;;;5007276;28;20037;-70
2021/07/12 10:19:59;;;;;;;8.35;4.55;;;24.30;99.90;;;;;;5006768;28;20031;-70
2021/07/12 10:22:32;;;;;;;6.22;4.25;;;24.40;99.90;;;;;;5006918;28;20037;-72
2021/07/12 10:25:09;;;;;;;15.23;5.43;;;24.50;99.90;;;;;;5007778;28;20412;-70
2021/07/12 10:27:46;;;;;;;11.43;5.32;;;24.80;99.90;;;;;;5007495;28;20028;-68
2021/07/12 10:30:34;;;;;;;7.57;4.65;;;25.00;99.90;;;;;;5007821;28;20034;-68
2021/07/12 10:33:03;;;;;;;7.03;4.53;;;25.10;99.90;;;;;;5004483;28;20055;-69
2021/07/12 10:35:40;;;;;;;10.98;5.88;;;25.20;99.90;;;;;;5007176;28;20453;-71
2021/07/12 10:38:07;;;;;;;11.45;4.50;;;25.20;99.90;;;;;;5007230;28;20456;-69
2021/07/12 10:40:53;;;;;;;6.32;4.10;;;25.20;99.90;;;;;;5007005;28;20054;-70
2021/07/12 10:43:58;;;;;;;6.20;4.28;;;25.20;99.90;;;;;;5007620;28;20061;-73
2021/07/12 10:46:23;;;;;;;8.80;4.35;;;25.40;99.90;;;;;;4985514;28;20070;-70
2021/07/12 10:48:49;;;;;;;7.18;4.30;;;25.50;99.90;;;;;;5003174;28;20042;-73
2021/07/12 10:51:23;;;;;;;7.90;4.10;;;25.60;99.90;;;;;;5006923;28;20121;-70
2021/07/12 10:53:59;;;;;;;5.40;3.72;;;25.70;99.90;;;;;;5006621;28;20084;-70
2021/07/12 10:56:50;;;;;;;8.35;4.30;;;25.70;99.90;;;;;;5007091;28;20034;-71
2021/07/12 10:59:27;;;;;;;6.00;3.90;;;25.60;99.90;;;;;;5007127;28;20022;-68
2021/07/12 11:01:53;;;;;;;6.03;3.97;;;25.50;99.90;;;;;;5007093;28;20030;-69
2021/07/12 11:04:35;;;;;;;6.95;3.63;;;25.40;99.90;;;;;;5006730;28;20034;-70
2021/07/12 11:07:14;;;;;;;4.88;3.00;;;25.40;99.90;;;;;;5005974;28;20045;-68
2021/07/12 11:09:52;;;;;;;5.05;3.40;;;25.40;99.90;;;;;;5006388;28;20023;-71
2021/07/12 11:12:34;;;;;;;7.50;4.57;;;25.50;99.90;;;;;;5006657;28;20076;-69
2021/07/12 11:15:06;;;;;;;5.72;3.30;;;25.50;99.90;;;;;;5006315;28;20084;-69
2021/07/12 11:17:48;;;;;;;6.18;3.50;;;25.50;99.90;;;;;;5004069;28;20057;-71
2021/07/12 11:20:14;;;;;;;6.47;3.60;;;25.70;99.90;;;;;;5006415;28;20073;-74
2021/07/12 11:22:53;;;;;;;7.00;4.03;;;25.80;99.90;;;;;;5021189;28;20022;-69
2021/07/12 11:25:39;;;;;;;6.95;4.57;;;25.80;99.90;;;;;;5006510;28;20065;-71
2021/07/12 11:28:15;;;;;;;5.43;3.35;;;25.80;99.90;;;;;;5006125;28;20054;-70
2021/07/12 11:30:42;;;;;;;4.53;3.25;;;26.00;99.90;;;;;;5006261;28;20027;-70
2021/07/12 11:33:07;;;;;;;4.00;2.60;;;26.10;99.90;;;;;;5005299;28;20034;-69
2021/07/12 11:35:34;;;;;;;5.13;3.50;;;26.30;99.90;;;;;;5005623;28;20049;-69
2021/07/12 11:38:03;;;;;;;5.97;3.65;;;26.60;99.90;;;;;;5005966;28;20026;-72
2021/07/12 11:40:29;;;;;;;5.60;3.38;;;26.70;99.90;;;;;;5005801;28;20026;-70
2021/07/12 11:42:55;;;;;;;4.90;3.35;;;26.70;99.90;;;;;;5005733;28;20069;-76
2021/07/12 11:45:23;;;;;;;7.45;3.58;;;26.60;99.90;;;;;;5006023;28;20049;-68
2021/07/12 11:47:56;;;;;;;6.22;3.33;;;26.60;99.90;;;;;;5004855;28;20037;-72
2021/07/12 11:50:24;;;;;;;8.68;3.85;;;26.80;99.90;;;;;;5005786;28;20041;-71
2021/07/12 11:52:53;;;;;;;5.05;3.55;;;26.80;99.90;;;;;;5005583;28;20034;-71
2021/07/12 11:55:26;;;;;;;5.38;3.80;;;26.90;99.90;;;;;;5016042;28;20030;-73
2021/07/12 11:57:56;;;;;;;5.45;3.65;;;27.00;99.90;;;;;;5019044;28;20027;-70
2021/07/12 12:00:27;;;;;;;7.43;3.58;;;27.20;99.90;;;;;;5005960;28;20560;-70
2021/07/12 12:03:02;;;;;;;4.57;2.85;;;27.40;99.90;;;;;;5005516;28;20481;-70
2021/07/12 12:05:30;;;;;;;4.38;3.10;;;27.60;99.90;;;;;;5005470;28;20035;-72
2021/07/12 12:07:59;;;;;;;4.07;2.85;;;27.50;99.90;;;;;;5005664;28;20037;-72
2021/07/12 12:10:30;;;;;;;5.10;2.97;;;27.30;99.90;;;;;;5004211;28;20030;-70
2021/07/12 12:13:16;;;;;;;5.13;3.33;;;27.00;99.90;;;;;;5005322;28;20118;-72
2021/07/12 12:15:43;;;;;;;5.43;3.22;;;26.90;99.90;;;;;;5004641;28;20038;-69
2021/07/12 12:18:12;;;;;;;4.65;2.78;;;27.20;99.90;;;;;;5004979;28;20451;-72
2021/07/12 12:20:49;;;;;;;4.95;3.05;;;27.40;99.90;;;;;;5005290;28;20031;-69
2021/07/12 12:23:22;;;;;;;5.85;3.30;;;27.20;99.90;;;;;;5005002;28;20039;-71
2021/07/12 12:25:57;;;;;;;6.93;3.25;;;27.10;99.90;;;;;;5005466;28;20041;-69
2021/07/12 12:28:27;;;;;;;6.05;3.47;;;26.80;99.90;;;;;;5004954;28;20030;-72
2021/07/12 12:30:54;;;;;;;4.97;3.72;;;26.60;99.90;;;;;;5005322;28;20030;-71
2021/07/12 12:33:25;;;;;;;5.45;3.47;;;26.30;99.90;;;;;;5005478;28;20045;-70
2021/07/12 12:36:03;;;;;;;4.63;3.28;;;26.40;99.90;;;;;;5005187;28;20027;-72
2021/07/12 12:38:29;;;;;;;5.35;2.83;;;26.80;99.90;;;;;;5004935;28;20050;-72
2021/07/12 12:41:01;;;;;;;4.43;3.15;;;27.40;99.90;;;;;;5005195;28;20022;-71
2021/07/12 12:43:28;;;;;;;4.68;3.00;;;27.90;99.90;;;;;;5005632;28;20496;-72
2021/07/12 12:45:58;;;;;;;4.65;2.95;;;28.20;99.90;;;;;;5005052;28;20022;-74
2021/07/12 12:48:42;;;;;;;4.75;3.40;;;28.20;99.90;;;;;;5004711;28;20030;-72